createdAt,value
2023-03-10T00:01:29.726Z,51.90
2023-03-10T00:04:00.568Z,51.90
2023-03-10T00:06:34.211Z,52.00
2023-03-10T00:09:03.520Z,52.00
2023-03-10T00:11:32.302Z,52.10
2023-03-10T00:14:00.969Z,52.20
2023-03-10T00:16:31.943Z,52.30
2023-03-10T00:19:00.677Z,52.40
2023-03-10T00:21:33.161Z,52.40
2023-03-10T00:24:02.073Z,52.40
2023-03-10T00:26:32.005Z,52.40
2023-03-10T00:29:00.773Z,52.50
2023-03-10T00:31:32.641Z,52.50
2023-03-10T00:34:02.571Z,52.50
2023-03-10T00:36:33.909Z,52.50
2023-03-10T00:39:04.680Z,52.60
2023-03-10T00:41:39.070Z,52.60
2023-03-10T00:44:09.684Z,52.60
2023-03-10T00:46:39.838Z,52.60
2023-03-10T00:49:09.432Z,53.30
2023-03-10T00:51:39.465Z,52.70
2023-03-10T00:54:08.218Z,52.70
2023-03-10T00:56:36.883Z,52.70
2023-03-10T00:59:06.964Z,52.80
2023-03-10T01:01:39.526Z,52.80
2023-03-10T01:04:10.958Z,52.70
2023-03-10T01:06:41.359Z,52.80
2023-03-10T01:09:10.150Z,52.70
2023-03-10T01:11:38.932Z,52.70
2023-03-10T01:14:10.244Z,52.70
2023-03-10T01:16:38.930Z,52.60
2023-03-10T01:19:07.960Z,52.70
2023-03-10T01:21:40.769Z,52.80
2023-03-10T01:24:16.308Z,52.70
2023-03-10T01:26:45.221Z,52.70
2023-03-10T01:29:14.431Z,52.70
2023-03-10T01:31:43.141Z,52.70
2023-03-10T01:34:11.756Z,52.70
2023-03-10T01:36:43.440Z,52.70
2023-03-10T01:39:12.104Z,52.80
2023-03-10T01:41:43.015Z,52.80
2023-03-10T01:44:17.182Z,52.80
2023-03-10T01:46:49.727Z,52.90
2023-03-10T01:49:41.052Z,52.90
2023-03-10T01:52:16.293Z,53.00
2023-03-10T01:54:51.982Z,53.20
2023-03-10T01:57:26.344Z,53.30
2023-03-10T01:59:56.879Z,53.30
2023-03-10T02:02:27.177Z,53.40
2023-03-10T02:04:56.888Z,53.40
2023-03-10T02:07:30.244Z,53.40
2023-03-10T02:10:00.417Z,53.50
2023-03-10T02:12:29.083Z,53.50
2023-03-10T02:14:58.590Z,53.60
2023-03-10T02:17:28.573Z,53.60
2023-03-10T02:20:11.492Z,53.70
2023-03-10T02:22:41.959Z,53.90
2023-03-10T02:25:25.967Z,54.50
2023-03-10T02:27:56.526Z,53.90
2023-03-10T02:30:28.773Z,53.80
2023-03-10T02:33:01.795Z,53.90
2023-03-10T02:35:30.914Z,53.90
2023-03-10T02:38:05.354Z,53.90
2023-03-10T02:40:38.072Z,54.00
2023-03-10T02:43:27.428Z,54.10
2023-03-10T02:46:05.112Z,54.10
2023-03-10T02:48:38.469Z,54.10
2023-03-10T02:51:16.761Z,54.10
2023-03-10T02:53:45.540Z,54.20
2023-03-10T02:56:14.390Z,54.00
2023-03-10T02:58:46.525Z,54.10
2023-03-10T03:01:15.301Z,54.20
2023-03-10T03:03:44.095Z,54.20
2023-03-10T03:06:14.302Z,54.20
2023-03-10T03:08:42.957Z,54.20
2023-03-10T03:11:15.526Z,54.20
2023-03-10T03:13:45.699Z,54.30
2023-03-10T03:16:15.002Z,54.40
2023-03-10T03:18:45.897Z,54.40
2023-03-10T03:21:17.932Z,54.40
2023-03-10T03:23:48.834Z,54.40
2023-03-10T03:26:21.690Z,54.40
2023-03-10T03:28:53.920Z,54.40
2023-03-10T03:31:27.887Z,54.50
2023-03-10T03:34:06.732Z,54.50
2023-03-10T03:36:35.604Z,54.50
2023-03-10T03:39:06.525Z,54.50
2023-03-10T03:41:36.532Z,54.50
2023-03-10T03:44:07.242Z,54.50
2023-03-10T03:46:37.657Z,54.60
2023-03-10T03:49:06.617Z,54.50
2023-03-10T03:51:37.531Z,54.60
2023-03-10T03:54:07.406Z,54.70
2023-03-10T03:56:38.684Z,54.70
2023-03-10T03:59:09.085Z,54.70
2023-03-10T04:01:37.789Z,54.80
2023-03-10T04:04:07.989Z,54.80
2023-03-10T04:06:37.184Z,54.80
2023-03-10T04:09:08.350Z,54.90
2023-03-10T04:11:36.997Z,54.90
2023-03-10T04:14:05.766Z,54.90
2023-03-10T04:16:36.531Z,55.00
2023-03-10T04:19:08.028Z,55.00
2023-03-10T04:21:40.824Z,55.00
2023-03-10T04:24:10.191Z,55.00
2023-03-10T04:26:39.064Z,55.00
2023-03-10T04:29:08.081Z,55.00
2023-03-10T04:31:40.480Z,55.00
2023-03-10T04:34:10.844Z,55.10
2023-03-10T04:36:40.534Z,55.00
2023-03-10T04:39:09.908Z,55.10
2023-03-10T04:41:38.728Z,55.10
2023-03-10T04:44:10.979Z,55.20
2023-03-10T04:46:45.779Z,55.10
2023-03-10T04:49:15.454Z,55.20
2023-03-10T04:51:46.642Z,55.20
2023-03-10T04:54:15.698Z,55.10
2023-03-10T04:56:44.475Z,55.20
2023-03-10T04:59:13.333Z,55.40
2023-03-10T05:01:42.252Z,55.10
2023-03-10T05:04:12.771Z,55.20
2023-03-10T05:06:41.525Z,55.20
2023-03-10T05:09:21.594Z,55.10
2023-03-10T05:11:51.034Z,55.20
2023-03-10T05:14:20.422Z,55.10
2023-03-10T05:16:50.242Z,55.10
2023-03-10T05:19:20.302Z,55.10
2023-03-10T05:21:49.036Z,55.10
2023-03-10T05:24:17.923Z,55.10
2023-03-10T05:26:46.629Z,55.10
2023-03-10T05:29:15.662Z,55.10
2023-03-10T05:31:49.555Z,55.10
2023-03-10T05:34:26.902Z,55.10
2023-03-10T05:36:58.844Z,55.20
2023-03-10T05:39:28.838Z,55.10
2023-03-10T05:42:00.312Z,55.10
2023-03-10T05:44:32.717Z,55.10
2023-03-10T05:47:02.945Z,55.10
2023-03-10T05:49:33.681Z,55.20
2023-03-10T05:52:02.310Z,55.10
2023-03-10T05:54:31.162Z,55.10
2023-03-10T05:57:00.294Z,55.10
2023-03-10T05:59:30.659Z,55.20
2023-03-10T06:02:00.143Z,55.10
2023-03-10T06:04:32.377Z,55.10
2023-03-10T06:07:03.155Z,55.10
2023-03-10T06:09:33.478Z,55.10
2023-03-10T06:12:02.160Z,55.10
2023-03-10T06:14:30.784Z,55.10
2023-03-10T06:16:59.411Z,55.10
2023-03-10T06:19:28.094Z,55.10
2023-03-10T06:21:56.790Z,55.10
2023-03-10T06:24:27.043Z,55.10
2023-03-10T06:26:55.675Z,55.10
2023-03-10T06:29:24.366Z,55.20
2023-03-10T06:31:53.132Z,55.10
2023-03-10T06:34:21.820Z,55.00
2023-03-10T06:36:50.472Z,55.10
2023-03-10T06:39:19.175Z,55.10
2023-03-10T06:41:49.258Z,55.10
2023-03-10T06:44:18.953Z,55.10
2023-03-10T06:46:47.821Z,55.00
2023-03-10T06:49:16.477Z,55.00
2023-03-10T06:51:45.166Z,54.90
2023-03-10T06:54:14.129Z,54.80
2023-03-10T06:56:42.806Z,54.70
2023-03-10T06:59:12.868Z,54.70
2023-03-10T07:01:41.464Z,54.60
2023-03-10T07:04:12.187Z,54.60
2023-03-10T07:06:40.809Z,54.60
2023-03-10T07:09:09.424Z,54.60
2023-03-10T07:11:38.063Z,54.60
2023-03-10T07:14:06.976Z,54.60
2023-03-10T07:16:37.034Z,54.60
2023-03-10T07:19:05.672Z,54.70
2023-03-10T07:21:34.361Z,54.70
2023-03-10T07:24:03.005Z,54.80
2023-03-10T07:26:31.885Z,54.80
2023-03-10T07:29:02.582Z,54.80
2023-03-10T07:31:31.305Z,54.90
2023-03-10T07:34:02.068Z,55.00
2023-03-10T07:36:30.982Z,55.00
2023-03-10T07:38:59.644Z,55.00
2023-03-10T07:41:28.347Z,54.90
2023-03-10T07:43:57.094Z,54.90
2023-03-10T07:46:25.976Z,54.80
2023-03-10T07:48:54.955Z,54.70
2023-03-10T07:51:25.066Z,54.70
2023-03-10T07:53:54.225Z,54.70
2023-03-10T07:56:23.099Z,54.60
2023-03-10T07:58:51.711Z,54.60
2023-03-10T08:01:23.075Z,54.60
2023-03-10T08:03:51.863Z,54.50
2023-03-10T08:06:25.081Z,54.50
2023-03-10T08:08:54.542Z,54.50
2023-03-10T08:11:23.841Z,54.50
2023-03-10T08:13:52.637Z,54.50
2023-03-10T08:16:23.681Z,54.50
2023-03-10T08:18:53.517Z,54.50
2023-03-10T08:21:22.235Z,54.60
2023-03-10T08:23:52.231Z,54.70
2023-03-10T08:26:21.500Z,54.80
2023-03-10T08:28:50.574Z,54.80
2023-03-10T08:31:21.783Z,55.00
2023-03-10T08:33:51.212Z,54.90
2023-03-10T08:36:22.847Z,54.80
2023-03-10T08:38:55.589Z,54.90
2023-03-10T08:41:27.858Z,54.90
2023-03-10T08:43:59.177Z,54.90
2023-03-10T08:46:33.126Z,54.80
2023-03-10T08:49:13.319Z,54.80
2023-03-10T08:51:42.420Z,54.70
2023-03-10T08:54:16.753Z,54.70
2023-03-10T08:56:45.604Z,54.80
2023-03-10T08:59:14.356Z,54.70
2023-03-10T09:01:43.468Z,54.70
2023-03-10T09:04:12.909Z,54.60
2023-03-10T09:06:42.224Z,54.80
2023-03-10T09:09:11.240Z,54.70
2023-03-10T09:11:42.309Z,54.70
2023-03-10T09:14:15.036Z,54.60
2023-03-10T09:16:45.914Z,54.60
2023-03-10T09:19:14.561Z,54.50
2023-03-10T09:21:43.506Z,54.60
2023-03-10T09:24:12.568Z,54.70
2023-03-10T09:26:44.715Z,54.70
2023-03-10T09:29:13.891Z,54.70
2023-03-10T09:31:43.804Z,54.80
2023-03-10T09:34:12.678Z,54.80
2023-03-10T09:36:41.437Z,54.80
2023-03-10T09:39:10.145Z,54.70
2023-03-10T09:42:06.092Z,54.60
2023-03-10T09:44:42.804Z,54.50
2023-03-10T09:47:42.339Z,54.50
2023-03-10T09:50:26.786Z,54.50
2023-03-10T09:53:04.394Z,54.50
2023-03-10T09:55:42.472Z,54.50
2023-03-10T09:58:30.519Z,54.50
2023-03-10T10:01:01.067Z,54.40
2023-03-10T10:03:50.113Z,54.50
2023-03-10T10:06:28.465Z,54.40
2023-03-10T10:09:05.222Z,55.00
2023-03-10T10:11:36.597Z,54.70
2023-03-10T10:14:28.235Z,54.70
2023-03-10T10:17:10.450Z,54.80
2023-03-10T10:19:41.076Z,54.80
2023-03-10T10:22:18.642Z,54.60
2023-03-10T10:25:02.896Z,54.60
2023-03-10T10:27:33.114Z,54.70
2023-03-10T10:30:31.552Z,54.70
2023-03-10T10:33:03.176Z,54.90
2023-03-10T10:35:34.172Z,54.90
2023-03-10T10:38:06.885Z,54.70
2023-03-10T10:40:48.459Z,54.80
2023-03-10T10:43:19.823Z,54.80
2023-03-10T10:45:56.122Z,54.80
2023-03-10T10:48:39.079Z,54.90
2023-03-10T10:51:21.412Z,54.90
2023-03-10T10:53:50.537Z,54.90
2023-03-10T10:56:21.046Z,54.90
2023-03-10T10:59:06.750Z,55.00
2023-03-10T11:01:53.272Z,55.10
2023-03-10T11:04:23.153Z,55.20
2023-03-10T11:06:53.173Z,55.10
2023-03-10T11:09:24.529Z,55.10
2023-03-10T11:12:05.140Z,55.20
2023-03-10T11:14:45.214Z,55.30
2023-03-10T11:17:23.221Z,55.40
2023-03-10T11:20:07.201Z,55.30
2023-03-10T11:22:42.465Z,55.30
2023-03-10T11:25:25.697Z,55.40
2023-03-10T11:28:10.740Z,55.40
2023-03-10T11:30:44.963Z,55.40
2023-03-10T11:33:27.584Z,55.30
2023-03-10T11:36:01.398Z,55.50
2023-03-10T11:38:38.815Z,56.00
2023-03-10T11:41:13.801Z,55.50
2023-03-10T11:43:56.482Z,55.50
2023-03-10T11:46:30.460Z,55.70
2023-03-10T11:49:08.326Z,55.40
2023-03-10T11:51:40.786Z,55.60
2023-03-10T11:54:16.593Z,55.60
2023-03-10T11:56:45.870Z,55.70
2023-03-10T11:59:18.667Z,55.50
2023-03-10T12:01:53.261Z,55.60
2023-03-10T12:04:32.079Z,55.60
2023-03-10T12:07:07.717Z,55.60
2023-03-10T12:09:43.182Z,55.60
2023-03-10T12:12:18.311Z,55.70
2023-03-10T12:14:48.197Z,55.60
2023-03-10T12:17:19.078Z,55.50
2023-03-10T12:20:29.442Z,55.60
2023-03-10T12:22:59.484Z,55.80
2023-03-10T12:25:45.806Z,55.60
2023-03-10T12:28:24.586Z,55.90
2023-03-10T12:30:57.465Z,55.80
2023-03-10T12:33:53.064Z,55.70
2023-03-10T12:36:36.552Z,55.90
2023-03-10T12:39:32.885Z,55.80
2023-03-10T12:42:02.871Z,55.90
2023-03-10T12:44:55.323Z,55.60
2023-03-10T12:47:47.393Z,56.00
2023-03-10T12:50:42.407Z,56.00
2023-03-10T12:53:31.511Z,56.10
2023-03-10T12:56:23.776Z,56.10
2023-03-10T12:59:03.429Z,56.20
2023-03-10T13:01:43.291Z,56.10
2023-03-10T13:04:21.154Z,56.10
2023-03-10T13:06:50.842Z,56.20
2023-03-10T13:09:28.650Z,56.00
2023-03-10T13:12:01.545Z,56.30
2023-03-10T13:14:40.501Z,56.10
2023-03-10T13:17:25.520Z,56.20
2023-03-10T13:20:08.581Z,56.10
2023-03-10T13:22:37.332Z,56.40
2023-03-10T13:25:13.714Z,56.10
2023-03-10T13:27:42.420Z,56.30
2023-03-10T13:30:17.729Z,56.20
2023-03-10T13:32:54.543Z,56.50
2023-03-10T13:35:27.549Z,56.60
2023-03-10T13:38:13.412Z,56.50
2023-03-10T13:40:46.456Z,56.50
2023-03-10T13:43:48.604Z,56.30
2023-03-10T13:46:20.269Z,56.50
2023-03-10T13:48:49.853Z,56.30
2023-03-10T13:51:22.920Z,56.30
2023-03-10T13:53:55.074Z,56.40
2023-03-10T13:56:28.371Z,56.40
2023-03-10T13:58:59.408Z,56.50
2023-03-10T14:01:32.006Z,56.40
2023-03-10T14:04:05.930Z,56.40
2023-03-10T14:06:34.877Z,56.40
2023-03-10T14:09:15.905Z,56.40
2023-03-10T14:11:47.986Z,56.70
2023-03-10T14:14:29.515Z,56.40
2023-03-10T14:17:00.592Z,56.70
2023-03-10T14:19:51.758Z,56.50
2023-03-10T14:22:35.822Z,56.70
2023-03-10T14:25:10.984Z,56.70
2023-03-10T14:27:44.166Z,56.60
2023-03-10T14:30:25.910Z,56.50
2023-03-10T14:32:55.380Z,56.70
2023-03-10T14:35:25.684Z,56.50
2023-03-10T14:37:55.074Z,56.50
2023-03-10T14:40:26.222Z,56.80
2023-03-10T14:43:00.866Z,56.80
2023-03-10T14:45:32.972Z,56.90
2023-03-10T14:48:05.277Z,57.50
2023-03-10T14:50:35.647Z,56.80
2023-03-10T14:53:04.625Z,56.90
2023-03-10T14:55:33.277Z,56.90
2023-03-10T14:58:06.945Z,56.90
2023-03-10T15:00:36.564Z,57.10
2023-03-10T15:03:06.455Z,56.90
2023-03-10T15:05:47.921Z,56.80
2023-03-10T15:08:17.967Z,56.80
2023-03-10T15:10:50.568Z,56.70
2023-03-10T15:13:23.111Z,56.50
2023-03-10T15:15:52.409Z,56.40
2023-03-10T15:18:23.681Z,56.40
2023-03-10T15:20:52.512Z,56.30
2023-03-10T15:23:22.465Z,56.30
2023-03-10T15:25:52.017Z,56.10
2023-03-10T15:28:22.593Z,56.00
2023-03-10T15:30:51.843Z,55.90
2023-03-10T15:33:20.474Z,55.80
2023-03-10T15:35:50.136Z,55.70
2023-03-10T15:38:18.835Z,55.60
2023-03-10T15:40:47.697Z,56.20
2023-03-10T15:43:16.434Z,55.40
2023-03-10T15:45:50.253Z,55.30
2023-03-10T15:48:19.513Z,55.00
2023-03-10T15:50:48.255Z,55.10
2023-03-10T15:53:17.003Z,55.10
2023-03-10T15:55:45.747Z,54.80
2023-03-10T15:58:14.391Z,54.70
2023-03-10T16:00:43.958Z,54.50
2023-03-10T16:03:17.756Z,54.60
2023-03-10T16:05:50.421Z,54.20
2023-03-10T16:08:19.796Z,53.80
2023-03-10T16:10:55.277Z,53.90
2023-03-10T16:13:25.091Z,53.60
2023-03-10T16:15:53.907Z,53.90
2023-03-10T16:18:23.881Z,53.80
2023-03-10T16:21:00.352Z,53.50
2023-03-10T16:23:32.036Z,53.30
2023-03-10T16:26:11.680Z,53.70
2023-03-10T16:28:43.607Z,53.50
2023-03-10T16:31:14.640Z,53.60
2023-03-10T16:33:46.925Z,53.60
2023-03-10T16:36:18.325Z,53.40
2023-03-10T16:38:47.786Z,53.30
2023-03-10T16:41:16.745Z,53.20
2023-03-10T16:43:46.497Z,53.20
2023-03-10T16:46:20.005Z,53.20
2023-03-10T16:48:50.216Z,53.10
2023-03-10T16:51:29.423Z,53.00
2023-03-10T16:54:00.570Z,53.20
2023-03-10T16:56:30.497Z,52.90
2023-03-10T16:58:59.734Z,52.80
2023-03-10T17:01:30.928Z,52.70
2023-03-10T17:04:01.017Z,52.60
2023-03-10T17:06:33.642Z,52.30
2023-03-10T17:09:03.766Z,52.30
2023-03-10T17:11:35.452Z,52.50
2023-03-10T17:14:06.913Z,52.40
2023-03-10T17:16:37.434Z,52.20
2023-03-10T17:19:11.892Z,52.20
2023-03-10T17:21:45.792Z,51.80
2023-03-10T17:24:16.375Z,52.00
2023-03-10T17:26:45.314Z,52.00
2023-03-10T17:29:14.326Z,52.00
2023-03-10T17:31:43.961Z,51.90
2023-03-10T17:34:14.916Z,51.90
2023-03-10T17:36:43.561Z,51.50
2023-03-10T17:39:20.008Z,51.60
2023-03-10T17:41:49.447Z,51.00
2023-03-10T17:44:18.689Z,51.50
2023-03-10T17:46:47.563Z,52.10
2023-03-10T17:49:19.119Z,51.40
2023-03-10T17:51:49.538Z,51.20
2023-03-10T17:54:21.287Z,51.40
2023-03-10T17:56:51.028Z,51.00
2023-03-10T17:59:21.360Z,51.10
2023-03-10T18:01:50.073Z,51.20
2023-03-10T18:04:20.073Z,51.20
2023-03-10T18:06:48.662Z,51.10
2023-03-10T18:09:17.378Z,51.10
2023-03-10T18:11:45.990Z,51.00
2023-03-10T18:14:14.905Z,51.10
2023-03-10T18:16:43.594Z,50.90
2023-03-10T18:19:12.562Z,51.00
2023-03-10T18:21:43.192Z,51.60
2023-03-10T18:24:12.707Z,50.90
2023-03-10T18:26:43.337Z,50.90
2023-03-10T18:29:13.158Z,50.80
2023-03-10T18:31:42.115Z,50.60
2023-03-10T18:34:12.913Z,50.60
2023-03-10T18:36:43.151Z,50.60
2023-03-10T18:39:12.683Z,50.40
2023-03-10T18:41:42.011Z,50.60
2023-03-10T18:44:10.641Z,50.50
2023-03-10T18:46:39.701Z,50.50
2023-03-10T18:49:08.492Z,50.40
2023-03-10T18:51:37.219Z,50.50
2023-03-10T18:54:07.765Z,50.40
2023-03-10T18:56:36.717Z,50.10
2023-03-10T18:59:05.345Z,50.40
2023-03-10T19:01:34.092Z,50.30
2023-03-10T19:04:03.395Z,50.40
2023-03-10T19:06:33.109Z,50.60
2023-03-10T19:09:02.387Z,50.60
2023-03-10T19:11:37.042Z,50.50
2023-03-10T19:14:07.314Z,50.10
2023-03-10T19:16:36.618Z,50.20
2023-03-10T19:19:05.495Z,50.20
2023-03-10T19:21:36.011Z,49.90
2023-03-10T19:24:05.257Z,49.50
2023-03-10T19:26:35.388Z,49.60
2023-03-10T19:29:05.065Z,49.60
2023-03-10T19:31:33.965Z,49.40
2023-03-10T19:34:02.748Z,49.30
2023-03-10T19:36:31.418Z,49.10
2023-03-10T19:39:00.123Z,48.80
2023-03-10T19:41:28.798Z,48.70
2023-03-10T19:43:59.732Z,48.60
2023-03-10T19:46:28.437Z,48.20
2023-03-10T19:48:57.043Z,48.40
2023-03-10T19:51:28.465Z,48.30
2023-03-10T19:54:02.092Z,48.10
2023-03-10T19:56:31.732Z,48.00
2023-03-10T19:59:01.810Z,48.00
2023-03-10T20:01:30.787Z,47.90
2023-03-10T20:04:04.355Z,48.00
2023-03-10T20:06:33.005Z,47.70
2023-03-10T20:09:04.774Z,47.70
2023-03-10T20:11:33.673Z,47.70
2023-03-10T20:14:03.846Z,47.50
2023-03-10T20:16:33.329Z,47.30
2023-03-10T20:19:02.352Z,47.30
2023-03-10T20:21:31.161Z,47.30
2023-03-10T20:23:59.759Z,47.20
2023-03-10T20:26:28.437Z,47.20
2023-03-10T20:28:57.092Z,47.20
2023-03-10T20:31:30.579Z,47.10
2023-03-10T20:33:59.231Z,47.00
2023-03-10T20:36:28.067Z,47.00
2023-03-10T20:38:59.721Z,47.00
2023-03-10T20:41:28.527Z,46.80
2023-03-10T20:43:57.181Z,46.80
2023-03-10T20:46:27.317Z,47.50
2023-03-10T20:48:56.047Z,46.60
2023-03-10T20:51:24.853Z,46.80
2023-03-10T20:53:53.550Z,46.70
2023-03-10T20:56:22.276Z,46.60
2023-03-10T20:58:50.877Z,46.60
2023-03-10T21:01:22.168Z,46.60
2023-03-10T21:03:54.780Z,46.40
2023-03-10T21:06:24.031Z,46.40
2023-03-10T21:08:53.204Z,46.50
2023-03-10T21:11:22.766Z,46.40
2023-03-10T21:13:51.907Z,46.40
2023-03-10T21:16:21.036Z,46.30
2023-03-10T21:18:51.090Z,46.40
2023-03-10T21:21:19.757Z,46.30
2023-03-10T21:23:48.592Z,46.30
2023-03-10T21:26:21.202Z,46.20
2023-03-10T21:28:50.607Z,46.00
2023-03-10T21:31:19.323Z,46.20
2023-03-10T21:33:48.094Z,46.10
2023-03-10T21:36:21.055Z,46.00
2023-03-10T21:38:50.241Z,46.30
2023-03-10T21:41:21.300Z,46.00
2023-03-10T21:43:50.130Z,45.80
2023-03-10T21:46:18.828Z,45.90
2023-03-10T21:48:47.524Z,45.90
2023-03-10T21:51:20.450Z,45.90
2023-03-10T21:53:49.141Z,45.60
2023-03-10T21:56:18.233Z,45.80
2023-03-10T21:58:47.341Z,45.80
2023-03-10T22:01:18.649Z,45.80
2023-03-10T22:03:47.482Z,45.70
2023-03-10T22:06:16.350Z,45.70
2023-03-10T22:08:46.343Z,45.70
2023-03-10T22:11:15.342Z,45.50
2023-03-10T22:13:44.435Z,45.80
2023-03-10T22:16:17.978Z,45.70
2023-03-10T22:18:47.340Z,45.40
2023-03-10T22:21:16.027Z,45.60
2023-03-10T22:23:46.377Z,45.50
2023-03-10T22:26:15.504Z,45.30
2023-03-10T22:28:44.234Z,45.40
2023-03-10T22:31:12.969Z,45.40
2023-03-10T22:33:41.837Z,45.40
2023-03-10T22:36:13.956Z,45.40
2023-03-10T22:38:42.732Z,45.10
2023-03-10T22:41:13.902Z,45.40
2023-03-10T22:43:43.083Z,45.10
2023-03-10T22:46:13.787Z,45.30
2023-03-10T22:48:43.436Z,45.30
2023-03-10T22:51:17.106Z,45.40
2023-03-10T22:53:47.290Z,45.10
2023-03-10T22:56:17.806Z,45.40
2023-03-10T22:58:46.403Z,45.20
2023-03-10T23:01:15.426Z,45.40
2023-03-10T23:03:44.032Z,45.40
2023-03-10T23:06:14.288Z,45.40
2023-03-10T23:08:44.374Z,45.40
2023-03-10T23:11:16.519Z,45.40
2023-03-10T23:13:45.163Z,45.40
2023-03-10T23:16:13.782Z,45.40
2023-03-10T23:18:42.474Z,45.30
2023-03-10T23:21:11.141Z,45.30
2023-03-10T23:23:43.634Z,45.30
2023-03-10T23:26:12.876Z,45.20
2023-03-10T23:28:42.873Z,45.10
2023-03-10T23:31:15.588Z,44.90
2023-03-10T23:33:44.679Z,45.10
2023-03-10T23:36:13.984Z,45.00
2023-03-10T23:38:42.700Z,45.00
2023-03-10T23:41:11.435Z,45.00
2023-03-10T23:43:40.071Z,44.80
2023-03-10T23:46:10.651Z,44.80
2023-03-10T23:48:39.299Z,44.50
2023-03-10T23:51:14.893Z,44.60
2023-03-10T23:53:44.018Z,43.80
2023-03-10T23:56:12.759Z,44.30
2023-03-10T23:58:41.623Z,44.10
